sensor_id;sensor_type;location;lat;lon;timestamp;P1;durP1;ratioP1;P2;durP2;ratioP2
63286;SDS011;49410;55.708;37.522;2023-02-25T00:01:22;19.55;;;8.52;;
63286;SDS011;49410;55.708;37.522;2023-02-25T00:03:53;18.17;;;8.88;;
63286;SDS011;49410;55.708;37.522;2023-02-25T00:06:20;17.92;;;7.32;;
63286;SDS011;49410;55.708;37.522;2023-02-25T00:08:49;20.20;;;7.43;;
63286;SDS011;49410;55.708;37.522;2023-02-25T00:11:16;21.05;;;8.65;;
63286;SDS011;49410;55.708;37.522;2023-02-25T00:13:43;20.83;;;8.82;;
63286;SDS011;49410;55.708;37.522;2023-02-25T00:16:09;19.30;;;8.88;;
63286;SDS011;49410;55.708;37.522;2023-02-25T00:18:36;20.02;;;9.25;;
63286;SDS011;49410;55.708;37.522;2023-02-25T00:21:05;19.83;;;8.25;;
63286;SDS011;49410;55.708;37.522;2023-02-25T00:23:33;16.83;;;8.48;;
63286;SDS011;49410;55.708;37.522;2023-02-25T00:26:00;18.85;;;8.52;;
63286;SDS011;49410;55.708;37.522;2023-02-25T00:28:27;19.17;;;7.20;;
63286;SDS011;49410;55.708;37.522;2023-02-25T00:30:53;19.75;;;8.73;;
63286;SDS011;49410;55.708;37.522;2023-02-25T00:33:18;17.77;;;8.25;;
63286;SDS011;49410;55.708;37.522;2023-02-25T00:35:44;17.52;;;8.13;;
63286;SDS011;49410;55.708;37.522;2023-02-25T00:38:09;19.77;;;9.13;;
63286;SDS011;49410;55.708;37.522;2023-02-25T00:40:39;18.38;;;8.43;;
63286;SDS011;49410;55.708;37.522;2023-02-25T00:43:04;18.10;;;7.75;;
63286;SDS011;49410;55.708;37.522;2023-02-25T00:45:30;19.95;;;7.65;;
63286;SDS011;49410;55.708;37.522;2023-02-25T00:47:56;17.67;;;8.52;;
63286;SDS011;49410;55.708;37.522;2023-02-25T00:50:22;16.90;;;7.32;;
63286;SDS011;49410;55.708;37.522;2023-02-25T00:52:48;18.20;;;7.30;;
63286;SDS011;49410;55.708;37.522;2023-02-25T00:55:13;19.02;;;8.93;;
63286;SDS011;49410;55.708;37.522;2023-02-25T00:57:39;17.05;;;7.72;;
63286;SDS011;49410;55.708;37.522;2023-02-25T01:00:05;18.88;;;8.68;;
63286;SDS011;49410;55.708;37.522;2023-02-25T01:02:35;20.23;;;8.32;;
63286;SDS011;49410;55.708;37.522;2023-02-25T01:05:01;18.98;;;7.72;;
63286;SDS011;49410;55.708;37.522;2023-02-25T01:07:27;19.58;;;8.15;;
63286;SDS011;49410;55.708;37.522;2023-02-25T01:09:55;19.08;;;8.60;;
63286;SDS011;49410;55.708;37.522;2023-02-25T01:12:21;19.20;;;8.05;;
63286;SDS011;49410;55.708;37.522;2023-02-25T01:14:47;19.15;;;8.35;;
63286;SDS011;49410;55.708;37.522;2023-02-25T01:17:13;18.63;;;8.10;;
63286;SDS011;49410;55.708;37.522;2023-02-25T01:19:38;20.45;;;8.30;;
63286;SDS011;49410;55.708;37.522;2023-02-25T01:22:04;23.67;;;8.80;;
63286;SDS011;49410;55.708;37.522;2023-02-25T01:24:31;18.85;;;8.40;;
63286;SDS011;49410;55.708;37.522;2023-02-25T01:26:58;23.27;;;9.35;;
63286;SDS011;49410;55.708;37.522;2023-02-25T01:29:26;19.52;;;8.88;;
63286;SDS011;49410;55.708;37.522;2023-02-25T01:31:55;17.73;;;7.55;;
63286;SDS011;49410;55.708;37.522;2023-02-25T01:34:23;21.92;;;9.13;;
63286;SDS011;49410;55.708;37.522;2023-02-25T01:36:49;14.02;;;7.20;;
63286;SDS011;49410;55.708;37.522;2023-02-25T01:39:16;19.60;;;7.32;;
63286;SDS011;49410;55.708;37.522;2023-02-25T01:41:43;21.40;;;8.40;;
63286;SDS011;49410;55.708;37.522;2023-02-25T01:44:23;19.35;;;7.57;;
63286;SDS011;49410;55.708;37.522;2023-02-25T01:46:56;19.00;;;8.25;;
63286;SDS011;49410;55.708;37.522;2023-02-25T01:49:33;19.58;;;9.30;;
63286;SDS011;49410;55.708;37.522;2023-02-25T01:52:07;17.05;;;6.82;;
63286;SDS011;49410;55.708;37.522;2023-02-25T01:54:43;17.67;;;7.15;;
63286;SDS011;49410;55.708;37.522;2023-02-25T01:57:12;18.40;;;8.88;;
63286;SDS011;49410;55.708;37.522;2023-02-25T01:59:40;18.10;;;6.95;;
63286;SDS011;49410;55.708;37.522;2023-02-25T02:02:10;18.58;;;8.73;;
63286;SDS011;49410;55.708;37.522;2023-02-25T02:04:38;18.88;;;8.32;;
63286;SDS011;49410;55.708;37.522;2023-02-25T02:07:05;16.40;;;8.35;;
63286;SDS011;49410;55.708;37.522;2023-02-25T02:09:31;21.05;;;8.75;;
63286;SDS011;49410;55.708;37.522;2023-02-25T02:11:58;18.88;;;8.05;;
63286;SDS011;49410;55.708;37.522;2023-02-25T02:14:37;19.10;;;8.77;;
63286;SDS011;49410;55.708;37.522;2023-02-25T02:19:42;21.92;;;7.85;;
63286;SDS011;49410;55.708;37.522;2023-02-25T02:27:53;18.60;;;8.38;;
63286;SDS011;49410;55.708;37.522;2023-02-25T02:36:05;16.23;;;7.00;;
63286;SDS011;49410;55.708;37.522;2023-02-25T02:38:48;16.10;;;7.30;;
63286;SDS011;49410;55.708;37.522;2023-02-25T02:41:45;17.33;;;7.53;;
63286;SDS011;49410;55.708;37.522;2023-02-25T02:44:23;15.32;;;7.28;;
63286;SDS011;49410;55.708;37.522;2023-02-25T02:52:11;18.75;;;8.43;;
63286;SDS011;49410;55.708;37.522;2023-02-25T02:54:42;19.05;;;8.13;;
63286;SDS011;49410;55.708;37.522;2023-02-25T02:57:11;16.83;;;8.27;;
63286;SDS011;49410;55.708;37.522;2023-02-25T02:59:41;14.65;;;7.25;;
63286;SDS011;49410;55.708;37.522;2023-02-25T03:04:43;16.65;;;7.05;;
63286;SDS011;49410;55.708;37.522;2023-02-25T03:07:12;15.57;;;7.15;;
63286;SDS011;49410;55.708;37.522;2023-02-25T03:09:45;16.83;;;6.68;;
63286;SDS011;49410;55.708;37.522;2023-02-25T03:12:17;18.25;;;7.47;;
63286;SDS011;49410;55.708;37.522;2023-02-25T03:14:43;15.00;;;6.63;;
63286;SDS011;49410;55.708;37.522;2023-02-25T03:17:13;17.08;;;6.82;;
63286;SDS011;49410;55.708;37.522;2023-02-25T03:22:16;19.10;;;7.13;;
63286;SDS011;49410;55.708;37.522;2023-02-25T03:27:45;14.52;;;7.63;;
63286;SDS011;49410;55.708;37.522;2023-02-25T03:33:15;17.75;;;7.43;;
63286;SDS011;49410;55.708;37.522;2023-02-25T03:35:51;18.05;;;6.82;;
63286;SDS011;49410;55.708;37.522;2023-02-25T03:38:21;16.40;;;7.20;;
63286;SDS011;49410;55.708;37.522;2023-02-25T03:40:51;16.55;;;7.90;;
63286;SDS011;49410;55.708;37.522;2023-02-25T03:43:21;18.40;;;6.65;;
63286;SDS011;49410;55.708;37.522;2023-02-25T03:48:18;14.02;;;7.07;;
63286;SDS011;49410;55.708;37.522;2023-02-25T03:50:51;14.20;;;6.10;;
63286;SDS011;49410;55.708;37.522;2023-02-25T03:53:20;15.52;;;6.80;;
63286;SDS011;49410;55.708;37.522;2023-02-25T03:55:45;20.23;;;7.80;;
63286;SDS011;49410;55.708;37.522;2023-02-25T03:58:11;14.80;;;6.72;;
63286;SDS011;49410;55.708;37.522;2023-02-25T04:00:37;15.82;;;7.53;;
63286;SDS011;49410;55.708;37.522;2023-02-25T04:03:05;15.18;;;6.47;;
63286;SDS011;49410;55.708;37.522;2023-02-25T04:05:30;17.65;;;7.40;;
63286;SDS011;49410;55.708;37.522;2023-02-25T04:07:57;13.60;;;7.13;;
63286;SDS011;49410;55.708;37.522;2023-02-25T04:10:23;15.82;;;6.70;;
63286;SDS011;49410;55.708;37.522;2023-02-25T04:12:50;13.98;;;6.40;;
63286;SDS011;49410;55.708;37.522;2023-02-25T04:15:16;14.63;;;6.25;;
63286;SDS011;49410;55.708;37.522;2023-02-25T04:17:42;13.95;;;7.32;;
63286;SDS011;49410;55.708;37.522;2023-02-25T04:20:09;17.08;;;8.18;;
63286;SDS011;49410;55.708;37.522;2023-02-25T04:22:36;16.90;;;6.30;;
63286;SDS011;49410;55.708;37.522;2023-02-25T04:25:02;14.30;;;6.72;;
63286;SDS011;49410;55.708;37.522;2023-02-25T04:27:28;15.43;;;7.10;;
63286;SDS011;49410;55.708;37.522;2023-02-25T04:29:56;12.93;;;6.85;;
63286;SDS011;49410;55.708;37.522;2023-02-25T04:32:21;15.65;;;6.53;;
63286;SDS011;49410;55.708;37.522;2023-02-25T04:34:47;14.73;;;6.78;;
63286;SDS011;49410;55.708;37.522;2023-02-25T04:37:12;14.38;;;6.22;;
63286;SDS011;49410;55.708;37.522;2023-02-25T04:39:37;15.35;;;6.35;;
63286;SDS011;49410;55.708;37.522;2023-02-25T04:42:04;15.68;;;7.22;;
63286;SDS011;49410;55.708;37.522;2023-02-25T04:44:30;14.50;;;6.57;;
63286;SDS011;49410;55.708;37.522;2023-02-25T04:46:55;14.50;;;6.22;;
63286;SDS011;49410;55.708;37.522;2023-02-25T04:49:21;12.48;;;6.28;;
63286;SDS011;49410;55.708;37.522;2023-02-25T04:51:47;15.98;;;6.80;;
63286;SDS011;49410;55.708;37.522;2023-02-25T04:54:15;14.15;;;7.00;;
63286;SDS011;49410;55.708;37.522;2023-02-25T04:56:42;14.45;;;6.07;;
63286;SDS011;49410;55.708;37.522;2023-02-25T04:59:08;15.45;;;6.63;;
63286;SDS011;49410;55.708;37.522;2023-02-25T05:01:35;15.40;;;7.65;;
63286;SDS011;49410;55.708;37.522;2023-02-25T05:04:02;15.93;;;7.70;;
63286;SDS011;49410;55.708;37.522;2023-02-25T05:06:28;15.90;;;6.78;;
63286;SDS011;49410;55.708;37.522;2023-02-25T05:08:54;15.88;;;6.43;;
63286;SDS011;49410;55.708;37.522;2023-02-25T05:11:24;20.10;;;7.88;;
63286;SDS011;49410;55.708;37.522;2023-02-25T05:13:51;15.40;;;7.65;;
63286;SDS011;49410;55.708;37.522;2023-02-25T05:16:20;17.30;;;7.72;;
63286;SDS011;49410;55.708;37.522;2023-02-25T05:18:46;14.27;;;7.18;;
63286;SDS011;49410;55.708;37.522;2023-02-25T05:21:21;16.65;;;6.63;;
63286;SDS011;49410;55.708;37.522;2023-02-25T05:23:49;14.88;;;7.20;;
63286;SDS011;49410;55.708;37.522;2023-02-25T05:26:16;15.07;;;6.53;;
63286;SDS011;49410;55.708;37.522;2023-02-25T05:28:47;16.17;;;7.18;;
63286;SDS011;49410;55.708;37.522;2023-02-25T05:31:13;13.55;;;6.43;;
63286;SDS011;49410;55.708;37.522;2023-02-25T05:33:39;15.43;;;5.95;;
63286;SDS011;49410;55.708;37.522;2023-02-25T05:36:08;14.65;;;6.28;;
63286;SDS011;49410;55.708;37.522;2023-02-25T05:38:36;17.30;;;7.50;;
63286;SDS011;49410;55.708;37.522;2023-02-25T05:41:02;13.93;;;6.53;;
63286;SDS011;49410;55.708;37.522;2023-02-25T05:43:32;17.42;;;6.18;;
63286;SDS011;49410;55.708;37.522;2023-02-25T05:45:59;16.17;;;6.95;;
63286;SDS011;49410;55.708;37.522;2023-02-25T05:48:27;14.05;;;6.05;;
63286;SDS011;49410;55.708;37.522;2023-02-25T05:51:01;15.63;;;6.55;;
63286;SDS011;49410;55.708;37.522;2023-02-25T05:53:30;14.05;;;7.20;;
63286;SDS011;49410;55.708;37.522;2023-02-25T05:55:55;22.20;;;6.57;;
63286;SDS011;49410;55.708;37.522;2023-02-25T05:58:21;18.83;;;6.57;;
63286;SDS011;49410;55.708;37.522;2023-02-25T06:00:47;14.48;;;6.43;;
63286;SDS011;49410;55.708;37.522;2023-02-25T06:03:12;14.95;;;6.15;;
63286;SDS011;49410;55.708;37.522;2023-02-25T06:05:39;14.70;;;6.35;;
63286;SDS011;49410;55.708;37.522;2023-02-25T06:08:06;12.27;;;5.55;;
63286;SDS011;49410;55.708;37.522;2023-02-25T06:10:31;13.70;;;5.78;;
63286;SDS011;49410;55.708;37.522;2023-02-25T06:13:02;13.40;;;5.82;;
63286;SDS011;49410;55.708;37.522;2023-02-25T06:15:29;12.82;;;5.88;;
63286;SDS011;49410;55.708;37.522;2023-02-25T06:17:54;12.35;;;5.78;;
63286;SDS011;49410;55.708;37.522;2023-02-25T06:20:20;16.55;;;6.07;;
63286;SDS011;49410;55.708;37.522;2023-02-25T06:22:49;13.90;;;6.65;;
63286;SDS011;49410;55.708;37.522;2023-02-25T06:25:15;13.52;;;5.53;;
63286;SDS011;49410;55.708;37.522;2023-02-25T06:27:48;14.30;;;5.57;;
63286;SDS011;49410;55.708;37.522;2023-02-25T06:30:16;11.55;;;4.85;;
63286;SDS011;49410;55.708;37.522;2023-02-25T06:32:41;12.45;;;5.60;;
63286;SDS011;49410;55.708;37.522;2023-02-25T06:35:07;12.68;;;5.07;;
63286;SDS011;49410;55.708;37.522;2023-02-25T06:37:33;11.00;;;5.22;;
63286;SDS011;49410;55.708;37.522;2023-02-25T06:39:58;15.18;;;6.00;;
63286;SDS011;49410;55.708;37.522;2023-02-25T06:42:24;10.80;;;5.10;;
63286;SDS011;49410;55.708;37.522;2023-02-25T06:44:50;12.15;;;5.70;;
63286;SDS011;49410;55.708;37.522;2023-02-25T06:47:15;14.23;;;5.35;;
63286;SDS011;49410;55.708;37.522;2023-02-25T06:49:41;14.30;;;5.60;;
63286;SDS011;49410;55.708;37.522;2023-02-25T06:52:06;12.57;;;5.60;;
63286;SDS011;49410;55.708;37.522;2023-02-25T06:54:32;14.30;;;6.03;;
63286;SDS011;49410;55.708;37.522;2023-02-25T06:56:57;11.20;;;5.43;;
63286;SDS011;49410;55.708;37.522;2023-02-25T06:59:24;14.82;;;5.60;;
63286;SDS011;49410;55.708;37.522;2023-02-25T07:01:50;11.57;;;5.43;;
63286;SDS011;49410;55.708;37.522;2023-02-25T07:04:16;14.30;;;5.60;;
63286;SDS011;49410;55.708;37.522;2023-02-25T07:06:43;13.05;;;5.80;;
63286;SDS011;49410;55.708;37.522;2023-02-25T07:09:09;13.27;;;6.07;;
63286;SDS011;49410;55.708;37.522;2023-02-25T07:11:35;12.15;;;5.95;;
63286;SDS011;49410;55.708;37.522;2023-02-25T07:14:02;15.32;;;5.88;;
63286;SDS011;49410;55.708;37.522;2023-02-25T07:16:29;11.88;;;5.18;;
63286;SDS011;49410;55.708;37.522;2023-02-25T07:18:55;10.52;;;5.03;;
63286;SDS011;49410;55.708;37.522;2023-02-25T07:21:26;12.68;;;5.45;;
63286;SDS011;49410;55.708;37.522;2023-02-25T07:23:53;11.90;;;5.07;;
63286;SDS011;49410;55.708;37.522;2023-02-25T07:26:20;15.40;;;5.57;;
63286;SDS011;49410;55.708;37.522;2023-02-25T07:28:45;12.07;;;5.35;;
63286;SDS011;49410;55.708;37.522;2023-02-25T07:31:15;12.75;;;5.38;;
63286;SDS011;49410;55.708;37.522;2023-02-25T07:33:42;12.73;;;4.82;;
63286;SDS011;49410;55.708;37.522;2023-02-25T07:36:15;10.65;;;5.03;;
63286;SDS011;49410;55.708;37.522;2023-02-25T07:38:43;14.50;;;5.53;;
63286;SDS011;49410;55.708;37.522;2023-02-25T07:41:10;12.80;;;4.93;;
63286;SDS011;49410;55.708;37.522;2023-02-25T07:43:38;11.38;;;4.97;;
63286;SDS011;49410;55.708;37.522;2023-02-25T07:46:04;10.60;;;5.05;;
63286;SDS011;49410;55.708;37.522;2023-02-25T07:48:30;13.02;;;5.55;;
63286;SDS011;49410;55.708;37.522;2023-02-25T07:51:30;12.20;;;4.72;;
63286;SDS011;49410;55.708;37.522;2023-02-25T07:53:54;10.95;;;5.10;;
63286;SDS011;49410;55.708;37.522;2023-02-25T07:58:50;14.45;;;5.07;;
63286;SDS011;49410;55.708;37.522;2023-02-25T08:03:53;10.05;;;4.40;;
63286;SDS011;49410;55.708;37.522;2023-02-25T08:06:20;10.65;;;4.75;;
63286;SDS011;49410;55.708;37.522;2023-02-25T08:08:48;11.90;;;4.93;;
63286;SDS011;49410;55.708;37.522;2023-02-25T08:11:19;11.23;;;4.75;;
63286;SDS011;49410;55.708;37.522;2023-02-25T08:13:46;8.50;;;4.40;;
63286;SDS011;49410;55.708;37.522;2023-02-25T08:16:13;11.77;;;5.22;;
63286;SDS011;49410;55.708;37.522;2023-02-25T08:18:40;11.80;;;4.90;;
63286;SDS011;49410;55.708;37.522;2023-02-25T08:21:07;12.70;;;4.93;;
63286;SDS011;49410;55.708;37.522;2023-02-25T08:23:36;10.63;;;4.57;;
63286;SDS011;49410;55.708;37.522;2023-02-25T08:26:03;10.10;;;4.03;;
63286;SDS011;49410;55.708;37.522;2023-02-25T08:28:30;9.75;;;4.55;;
63286;SDS011;49410;55.708;37.522;2023-02-25T08:30:57;11.40;;;4.22;;
63286;SDS011;49410;55.708;37.522;2023-02-25T08:33:23;9.20;;;4.22;;
63286;SDS011;49410;55.708;37.522;2023-02-25T08:35:53;10.43;;;4.28;;
63286;SDS011;49410;55.708;37.522;2023-02-25T08:38:19;10.57;;;4.55;;
63286;SDS011;49410;55.708;37.522;2023-02-25T08:40:45;11.20;;;5.10;;
63286;SDS011;49410;55.708;37.522;2023-02-25T08:43:10;9.80;;;4.72;;
63286;SDS011;49410;55.708;37.522;2023-02-25T08:45:40;10.43;;;4.75;;
63286;SDS011;49410;55.708;37.522;2023-02-25T08:48:12;9.27;;;3.80;;
63286;SDS011;49410;55.708;37.522;2023-02-25T08:50:37;10.18;;;4.30;;
63286;SDS011;49410;55.708;37.522;2023-02-25T08:53:03;10.50;;;4.50;;
63286;SDS011;49410;55.708;37.522;2023-02-25T08:55:28;14.13;;;4.80;;
63286;SDS011;49410;55.708;37.522;2023-02-25T08:57:54;13.80;;;4.57;;
63286;SDS011;49410;55.708;37.522;2023-02-25T09:00:19;9.98;;;4.63;;
63286;SDS011;49410;55.708;37.522;2023-02-25T09:02:47;9.68;;;4.15;;
63286;SDS011;49410;55.708;37.522;2023-02-25T09:05:13;11.20;;;4.65;;
63286;SDS011;49410;55.708;37.522;2023-02-25T09:07:39;11.15;;;5.18;;
63286;SDS011;49410;55.708;37.522;2023-02-25T09:10:10;11.38;;;4.53;;
63286;SDS011;49410;55.708;37.522;2023-02-25T09:12:37;8.93;;;4.00;;
63286;SDS011;49410;55.708;37.522;2023-02-25T09:15:04;13.02;;;4.28;;
63286;SDS011;49410;55.708;37.522;2023-02-25T09:17:31;9.27;;;4.43;;
63286;SDS011;49410;55.708;37.522;2023-02-25T09:19:57;8.35;;;3.70;;
63286;SDS011;49410;55.708;37.522;2023-02-25T09:22:25;9.80;;;4.03;;
63286;SDS011;49410;55.708;37.522;2023-02-25T09:24:51;8.43;;;3.75;;
63286;SDS011;49410;55.708;37.522;2023-02-25T09:27:16;9.10;;;3.92;;
63286;SDS011;49410;55.708;37.522;2023-02-25T09:29:42;10.57;;;3.67;;
63286;SDS011;49410;55.708;37.522;2023-02-25T09:32:08;9.23;;;3.88;;
63286;SDS011;49410;55.708;37.522;2023-02-25T09:34:41;8.30;;;3.58;;
63286;SDS011;49410;55.708;37.522;2023-02-25T09:37:07;8.63;;;4.00;;
63286;SDS011;49410;55.708;37.522;2023-02-25T09:39:33;9.85;;;4.28;;
63286;SDS011;49410;55.708;37.522;2023-02-25T09:42:00;10.07;;;3.40;;
63286;SDS011;49410;55.708;37.522;2023-02-25T09:44:43;8.18;;;3.38;;
63286;SDS011;49410;55.708;37.522;2023-02-25T09:49:57;8.35;;;3.65;;
63286;SDS011;49410;55.708;37.522;2023-02-25T09:57:21;6.85;;;3.40;;
63286;SDS011;49410;55.708;37.522;2023-02-25T09:59:48;7.90;;;3.10;;
63286;SDS011;49410;55.708;37.522;2023-02-25T10:02:19;7.45;;;3.22;;
63286;SDS011;49410;55.708;37.522;2023-02-25T10:04:55;9.02;;;3.95;;
63286;SDS011;49410;55.708;37.522;2023-02-25T10:07:29;6.97;;;3.35;;
63286;SDS011;49410;55.708;37.522;2023-02-25T10:12:39;9.80;;;3.63;;
63286;SDS011;49410;55.708;37.522;2023-02-25T10:22:46;8.75;;;3.05;;
63286;SDS011;49410;55.708;37.522;2023-02-25T10:25:16;7.35;;;3.40;;
63286;SDS011;49410;55.708;37.522;2023-02-25T10:27:44;12.48;;;3.05;;
63286;SDS011;49410;55.708;37.522;2023-02-25T10:30:14;10.13;;;3.70;;
63286;SDS011;49410;55.708;37.522;2023-02-25T10:32:41;6.13;;;3.10;;
63286;SDS011;49410;55.708;37.522;2023-02-25T10:37:46;7.70;;;3.67;;
63286;SDS011;49410;55.708;37.522;2023-02-25T10:40:13;8.93;;;3.38;;
63286;SDS011;49410;55.708;37.522;2023-02-25T10:42:46;10.60;;;3.70;;
63286;SDS011;49410;55.708;37.522;2023-02-25T10:45:12;8.13;;;3.70;;
63286;SDS011;49410;55.708;37.522;2023-02-25T10:47:41;8.50;;;3.78;;
63286;SDS011;49410;55.708;37.522;2023-02-25T10:50:27;10.00;;;4.65;;
63286;SDS011;49410;55.708;37.522;2023-02-25T10:52:57;7.68;;;3.50;;
63286;SDS011;49410;55.708;37.522;2023-02-25T10:58:03;8.93;;;4.03;;
63286;SDS011;49410;55.708;37.522;2023-02-25T11:00:32;8.40;;;3.72;;
63286;SDS011;49410;55.708;37.522;2023-02-25T11:02:59;8.77;;;3.60;;
63286;SDS011;49410;55.708;37.522;2023-02-25T11:05:32;9.90;;;3.60;;
63286;SDS011;49410;55.708;37.522;2023-02-25T11:08:05;9.35;;;3.60;;
63286;SDS011;49410;55.708;37.522;2023-02-25T11:13:39;9.02;;;3.88;;
63286;SDS011;49410;55.708;37.522;2023-02-25T11:16:06;8.68;;;3.33;;
63286;SDS011;49410;55.708;37.522;2023-02-25T11:18:37;7.95;;;3.67;;
63286;SDS011;49410;55.708;37.522;2023-02-25T11:21:10;13.27;;;3.97;;
63286;SDS011;49410;55.708;37.522;2023-02-25T11:23:39;7.82;;;3.47;;
63286;SDS011;49410;55.708;37.522;2023-02-25T11:26:25;7.25;;;3.83;;
63286;SDS011;49410;55.708;37.522;2023-02-25T11:28:54;7.70;;;3.65;;
63286;SDS011;49410;55.708;37.522;2023-02-25T11:31:27;7.55;;;3.47;;
63286;SDS011;49410;55.708;37.522;2023-02-25T11:34:01;8.68;;;3.90;;
63286;SDS011;49410;55.708;37.522;2023-02-25T11:36:34;8.05;;;3.53;;
63286;SDS011;49410;55.708;37.522;2023-02-25T11:39:03;7.55;;;3.50;;
63286;SDS011;49410;55.708;37.522;2023-02-25T11:41:35;8.25;;;3.67;;
63286;SDS011;49410;55.708;37.522;2023-02-25T11:44:44;8.52;;;3.80;;
63286;SDS011;49410;55.708;37.522;2023-02-25T11:46:57;9.27;;;3.58;;
63286;SDS011;49410;55.708;37.522;2023-02-25T11:55:38;10.10;;;3.50;;
63286;SDS011;49410;55.708;37.522;2023-02-25T12:06:37;10.50;;;3.42;;
63286;SDS011;49410;55.708;37.522;2023-02-25T12:15:15;8.38;;;3.45;;
63286;SDS011;49410;55.708;37.522;2023-02-25T12:28:43;8.88;;;3.47;;
63286;SDS011;49410;55.708;37.522;2023-02-25T12:31:34;7.53;;;3.60;;
63286;SDS011;49410;55.708;37.522;2023-02-25T12:34:44;7.28;;;3.28;;
63286;SDS011;49410;55.708;37.522;2023-02-25T12:57:07;8.00;;;3.33;;
63286;SDS011;49410;55.708;37.522;2023-02-25T13:03:13;8.65;;;3.83;;
63286;SDS011;49410;55.708;37.522;2023-02-25T13:28:16;10.35;;;3.75;;
63286;SDS011;49410;55.708;37.522;2023-02-25T13:33:43;9.35;;;4.20;;
63286;SDS011;49410;55.708;37.522;2023-02-25T13:42:40;8.88;;;3.92;;
63286;SDS011;49410;55.708;37.522;2023-02-25T13:59:08;8.80;;;4.28;;
63286;SDS011;49410;55.708;37.522;2023-02-25T14:01:55;9.35;;;4.20;;
63286;SDS011;49410;55.708;37.522;2023-02-25T14:23:43;11.57;;;4.70;;
63286;SDS011;49410;55.708;37.522;2023-02-25T14:26:37;9.85;;;4.55;;
63286;SDS011;49410;55.708;37.522;2023-02-25T14:29:13;11.57;;;4.93;;
63286;SDS011;49410;55.708;37.522;2023-02-25T14:31:52;11.43;;;4.80;;
63286;SDS011;49410;55.708;37.522;2023-02-25T14:43:46;13.68;;;5.85;;
63286;SDS011;49410;55.708;37.522;2023-02-25T14:48:53;12.85;;;5.13;;
63286;SDS011;49410;55.708;37.522;2023-02-25T14:51:24;14.48;;;6.63;;
63286;SDS011;49410;55.708;37.522;2023-02-25T14:56:45;13.02;;;5.88;;
63286;SDS011;49410;55.708;37.522;2023-02-25T15:07:52;21.17;;;7.15;;
63286;SDS011;49410;55.708;37.522;2023-02-25T15:13:56;16.73;;;6.38;;
63286;SDS011;49410;55.708;37.522;2023-02-25T15:19:36;15.82;;;6.80;;
63286;SDS011;49410;55.708;37.522;2023-02-25T15:22:26;15.00;;;6.78;;
63286;SDS011;49410;55.708;37.522;2023-02-25T15:27:45;16.48;;;6.72;;
63286;SDS011;49410;55.708;37.522;2023-02-25T15:30:21;16.88;;;7.28;;
63286;SDS011;49410;55.708;37.522;2023-02-25T15:38:11;16.17;;;6.68;;
63286;SDS011;49410;55.708;37.522;2023-02-25T15:40:50;17.77;;;6.93;;
63286;SDS011;49410;55.708;37.522;2023-02-25T15:55:50;17.95;;;6.15;;
63286;SDS011;49410;55.708;37.522;2023-02-25T16:05:58;13.85;;;6.38;;
63286;SDS011;49410;55.708;37.522;2023-02-25T16:08:38;14.95;;;5.90;;
63286;SDS011;49410;55.708;37.522;2023-02-25T16:11:06;15.10;;;6.43;;
63286;SDS011;49410;55.708;37.522;2023-02-25T16:13:45;16.08;;;6.53;;
63286;SDS011;49410;55.708;37.522;2023-02-25T16:16:11;13.98;;;6.68;;
63286;SDS011;49410;55.708;37.522;2023-02-25T16:18:42;14.82;;;6.32;;
63286;SDS011;49410;55.708;37.522;2023-02-25T16:24:05;14.63;;;6.13;;
63286;SDS011;49410;55.708;37.522;2023-02-25T16:26:42;15.55;;;6.32;;
63286;SDS011;49410;55.708;37.522;2023-02-25T16:29:29;14.98;;;5.97;;
63286;SDS011;49410;55.708;37.522;2023-02-25T16:40:37;15.63;;;6.18;;
63286;SDS011;49410;55.708;37.522;2023-02-25T16:43:04;15.32;;;7.15;;
63286;SDS011;49410;55.708;37.522;2023-02-25T16:45:36;17.90;;;7.05;;
63286;SDS011;49410;55.708;37.522;2023-02-25T16:48:14;17.15;;;7.57;;
63286;SDS011;49410;55.708;37.522;2023-02-25T16:50:46;20.55;;;8.13;;
63286;SDS011;49410;55.708;37.522;2023-02-25T16:53:18;15.68;;;6.43;;
63286;SDS011;49410;55.708;37.522;2023-02-25T16:55:49;19.23;;;7.85;;
63286;SDS011;49410;55.708;37.522;2023-02-25T16:58:19;17.98;;;7.75;;
63286;SDS011;49410;55.708;37.522;2023-02-25T17:00:54;17.83;;;7.60;;
63286;SDS011;49410;55.708;37.522;2023-02-25T17:03:21;16.08;;;7.60;;
63286;SDS011;49410;55.708;37.522;2023-02-25T17:06:02;16.95;;;7.07;;
63286;SDS011;49410;55.708;37.522;2023-02-25T17:08:30;16.30;;;6.97;;
63286;SDS011;49410;55.708;37.522;2023-02-25T17:10:57;17.38;;;7.30;;
63286;SDS011;49410;55.708;37.522;2023-02-25T17:13:26;21.85;;;7.45;;
63286;SDS011;49410;55.708;37.522;2023-02-25T17:15:52;18.35;;;8.20;;
63286;SDS011;49410;55.708;37.522;2023-02-25T17:18:28;17.67;;;7.00;;
63286;SDS011;49410;55.708;37.522;2023-02-25T17:23:53;19.83;;;7.45;;
63286;SDS011;49410;55.708;37.522;2023-02-25T17:26:22;18.00;;;7.13;;
63286;SDS011;49410;55.708;37.522;2023-02-25T17:28:49;18.02;;;7.60;;
63286;SDS011;49410;55.708;37.522;2023-02-25T17:34:25;18.35;;;7.07;;
63286;SDS011;49410;55.708;37.522;2023-02-25T17:36:54;16.52;;;7.43;;
63286;SDS011;49410;55.708;37.522;2023-02-25T17:39:22;19.02;;;8.23;;
63286;SDS011;49410;55.708;37.522;2023-02-25T17:41:49;18.33;;;7.50;;
63286;SDS011;49410;55.708;37.522;2023-02-25T17:47:09;19.80;;;7.43;;
63286;SDS011;49410;55.708;37.522;2023-02-25T17:49:37;18.77;;;7.63;;
63286;SDS011;49410;55.708;37.522;2023-02-25T17:52:04;21.15;;;7.80;;
63286;SDS011;49410;55.708;37.522;2023-02-25T17:54:32;18.70;;;8.15;;
63286;SDS011;49410;55.708;37.522;2023-02-25T17:57:07;23.98;;;8.98;;
63286;SDS011;49410;55.708;37.522;2023-02-25T17:59:39;20.75;;;8.65;;
63286;SDS011;49410;55.708;37.522;2023-02-25T18:04:46;24.23;;;8.55;;
63286;SDS011;49410;55.708;37.522;2023-02-25T18:07:25;23.33;;;9.32;;
63286;SDS011;49410;55.708;37.522;2023-02-25T18:09:57;21.17;;;8.45;;
63286;SDS011;49410;55.708;37.522;2023-02-25T18:12:28;19.80;;;8.40;;
63286;SDS011;49410;55.708;37.522;2023-02-25T18:15:25;24.40;;;9.57;;
63286;SDS011;49410;55.708;37.522;2023-02-25T18:17:53;26.23;;;9.07;;
63286;SDS011;49410;55.708;37.522;2023-02-25T18:20:39;27.45;;;10.43;;
63286;SDS011;49410;55.708;37.522;2023-02-25T18:23:06;25.88;;;9.80;;
63286;SDS011;49410;55.708;37.522;2023-02-25T18:25:40;26.20;;;9.45;;
63286;SDS011;49410;55.708;37.522;2023-02-25T18:28:14;27.15;;;10.55;;
63286;SDS011;49410;55.708;37.522;2023-02-25T18:30:42;23.23;;;8.93;;
63286;SDS011;49410;55.708;37.522;2023-02-25T18:33:15;30.17;;;11.93;;
63286;SDS011;49410;55.708;37.522;2023-02-25T18:35:42;25.27;;;10.25;;
63286;SDS011;49410;55.708;37.522;2023-02-25T18:38:14;25.08;;;11.00;;
63286;SDS011;49410;55.708;37.522;2023-02-25T18:40:42;26.35;;;10.13;;
63286;SDS011;49410;55.708;37.522;2023-02-25T18:43:13;32.75;;;12.02;;
63286;SDS011;49410;55.708;37.522;2023-02-25T18:45:41;30.10;;;11.85;;
63286;SDS011;49410;55.708;37.522;2023-02-25T18:48:06;24.38;;;10.13;;
63286;SDS011;49410;55.708;37.522;2023-02-25T18:50:32;24.52;;;10.35;;
63286;SDS011;49410;55.708;37.522;2023-02-25T18:52:58;29.70;;;11.02;;
63286;SDS011;49410;55.708;37.522;2023-02-25T18:55:29;26.88;;;10.73;;
63286;SDS011;49410;55.708;37.522;2023-02-25T18:57:56;32.63;;;11.50;;
63286;SDS011;49410;55.708;37.522;2023-02-25T19:00:23;31.13;;;12.52;;
63286;SDS011;49410;55.708;37.522;2023-02-25T19:03:00;29.85;;;11.35;;